Lake Worth, FL

3:50 AM EDT on October 02, 2014 (GMT -0400)
Rolling Green Ridge | Change Station
CLOSE
Current Station
Personal Weather Station
Location: Boynton Beach, FL
Elevation: 19 ft
Nearby Weather Stations

Elev 19 ft 26.56 °N, 80.07 °W | Updated 12 seconds ago

Clear
Clear
76.5 °F
Feels Like 77 °F
N
0.0
Wind Variable Wind from West
Gusts 2.7 mph

Today
High -- | Low -- °F
--% Chance of Precip.
Yesterday
High -- | Low -- °F
Precip. -- in
7:13 AM 7:05 PM
First Quarter, 56% visible
Pressure 29.94 in
Visibility 10.0 miles
Clouds Clear
Heat Index 77 °F
Dew Point 74 °F
Humidity 92%
Rainfall 0.00 in
Snow Depth Not available.
UV 0 out of 12
Pollen 4.60 out of 12
Air Quality Not available.
Flu Activity Not available.
METAR KPBI 020653Z 22003KT 10SM CLR 25/24 A2994 RMK AO2 SLP138 T02500239 $

More Conditions Fewer Conditions

Pressure 29.94 in
Visibility 10.0 miles
Clouds Clear
Heat Index 77 °F
Dew Point 74 °F
Humidity 92%
Rainfall 0.00 in
Snow Depth Not available.
UV 0 out of 12
Pollen 4.60 out of 12
Air Quality Not available.
Flu Activity Not available.
METAR KPBI 020653Z 22003KT 10SM CLR 25/24 A2994 RMK AO2 SLP138 T02500239 $

More Conditions Fewer Conditions

10-Day Weather Forecast

Almanac

Astronomy

Oct. 02, 2014 Rise Set
Actual Time 7:13 AM EDT 7:05 PM EDT
Civil Twilight 6:50 AM EDT 7:28 PM EDT
Nautical Twilight 6:23 AM EDT 7:55 PM EDT
Astronomical Twilight 5:56 AM EDT 8:22 PM EDT
Moon 2:41 PM EDT 12:59 AM EDT
Length of Visible Light 12h 38m
Length of Day
11h 52m
Tomorrow will be 1m 32s shorter.
First Quarter, 56% of the Moon is Illuminated
Today
First Quarter
Oct 8
Full
Oct 15
Last Quarter
Oct 23
New
Oct 30
First Quarter

Today's Extremes

State Highs State Lows

Community

WunderPhotos

Upload Photos

1,758,198 photos uploaded!

WunderBlogs® & News

By Dr. Jeff Masters
Director of Meteorology, Weather Underground
By Kari Strenfel
Meteorologist, Weather Underground
By Christopher C. Burt
Weather Historian, Weather Underground
October 2, 2014
October 2, 2014
October 2, 2014

Nearby

Air Quality

  Air Quality AQ Index Pollutant
Yesterday Good
PM2.5
Yesterday Good
OZONE
Thursday Good
OZONE
Thursday Good
PM2.5
Friday Good
OZONE
Friday Good
PM2.5

Snow Depth

Station Depth Elevation
No new snow has been reported.

Earthquake Activity

City Distance Mag. Time & Date
No recent earthquake activity has been reported nearby.
Minimum magnitude displayed is 2.5.

Coastal Water Temperatures

Place Temperature
Lake Worth, FL 84.9 °F
Virginia Key, FL 86.0 °F

Nearby Weather Stations